createdAt,value
2023-05-14T00:00:19.231Z,13.29
2023-05-14T00:02:45.945Z,13.26
2023-05-14T00:05:12.458Z,13.24
2023-05-14T00:07:38.846Z,13.20
2023-05-14T00:10:05.633Z,13.15
2023-05-14T00:12:32.119Z,13.11
2023-05-14T00:14:58.427Z,13.08
2023-05-14T00:17:24.791Z,13.04
2023-05-14T00:19:51.158Z,13.00
2023-05-14T00:22:17.507Z,13.01
2023-05-14T00:24:43.909Z,12.97
2023-05-14T00:27:10.267Z,12.95
2023-05-14T00:29:36.578Z,12.94
2023-05-14T00:32:03.696Z,12.92
2023-05-14T00:34:30.076Z,12.91
2023-05-14T00:36:56.418Z,12.92
2023-05-14T00:39:22.720Z,12.90
2023-05-14T00:41:49.776Z,12.87
2023-05-14T00:44:16.151Z,12.81
2023-05-14T00:46:43.605Z,12.78
2023-05-14T00:49:10.648Z,12.77
2023-05-14T00:51:37.148Z,12.75
2023-05-14T00:54:03.751Z,12.71
2023-05-14T00:56:30.204Z,12.69
2023-05-14T00:58:56.538Z,12.68
2023-05-14T01:01:23.089Z,12.66
2023-05-14T01:03:49.932Z,12.64
2023-05-14T01:06:36.926Z,12.62
2023-05-14T01:09:08.391Z,12.54
2023-05-14T01:12:05.586Z,12.48
2023-05-14T01:14:52.322Z,12.44
2023-05-14T01:17:20.250Z,12.43
2023-05-14T01:19:48.372Z,12.39
2023-05-14T01:22:14.784Z,12.37
2023-05-14T01:24:41.140Z,12.32
2023-05-14T01:27:31.590Z,12.30
2023-05-14T01:30:13.786Z,12.25
2023-05-14T01:32:41.907Z,12.21
2023-05-14T01:35:09.701Z,12.22
2023-05-14T01:37:36.700Z,12.18
2023-05-14T01:40:04.424Z,12.17
2023-05-14T01:42:31.175Z,12.13
2023-05-14T01:44:57.913Z,12.13
2023-05-14T01:47:24.406Z,12.13
2023-05-14T01:49:50.913Z,12.10
2023-05-14T01:52:20.850Z,12.09
2023-05-14T01:54:48.474Z,12.10
2023-05-14T01:57:14.815Z,12.06
2023-05-14T01:59:41.140Z,12.04
2023-05-14T02:02:07.499Z,12.04
2023-05-14T02:04:33.823Z,11.98
2023-05-14T02:07:00.388Z,11.94
2023-05-14T02:09:26.725Z,11.90
2023-05-14T02:11:53.037Z,11.89
2023-05-14T02:14:19.347Z,11.88
2023-05-14T02:16:45.749Z,11.86
2023-05-14T02:19:12.220Z,11.82
2023-05-14T02:21:38.621Z,11.76
2023-05-14T02:24:05.132Z,11.72
2023-05-14T02:26:31.460Z,11.69
2023-05-14T02:28:58.086Z,11.71
2023-05-14T02:31:24.690Z,11.74
2023-05-14T02:33:51.205Z,11.74
2023-05-14T02:36:17.561Z,11.74
2023-05-14T02:38:43.952Z,11.73
2023-05-14T02:41:10.282Z,11.73
2023-05-14T02:43:36.640Z,11.74
2023-05-14T02:46:03.647Z,11.71
2023-05-14T02:48:30.028Z,11.70
2023-05-14T02:50:56.358Z,11.70
2023-05-14T02:53:22.714Z,11.68
2023-05-14T02:55:49.098Z,11.67
2023-05-14T02:58:15.851Z,11.68
2023-05-14T03:00:42.236Z,11.68
2023-05-14T03:03:08.969Z,11.66
2023-05-14T03:05:35.794Z,11.63
2023-05-14T03:08:02.323Z,11.62
2023-05-14T03:10:28.651Z,11.60
2023-05-14T03:12:55.013Z,11.57
2023-05-14T03:15:21.410Z,11.57
2023-05-14T03:17:47.786Z,11.58
2023-05-14T03:20:14.221Z,11.55
2023-05-14T03:22:40.641Z,11.51
2023-05-14T03:25:07.344Z,11.48
2023-05-14T03:27:34.505Z,11.48
2023-05-14T03:30:01.069Z,11.48
2023-05-14T03:32:27.605Z,11.46
2023-05-14T03:34:53.980Z,11.44
2023-05-14T03:37:20.350Z,11.40
2023-05-14T03:39:46.667Z,11.39
2023-05-14T03:42:13.090Z,11.39
2023-05-14T03:44:39.445Z,11.41
2023-05-14T03:47:05.985Z,11.39
2023-05-14T03:49:32.343Z,11.39
2023-05-14T03:51:59.363Z,11.38
2023-05-14T03:54:26.488Z,11.37
2023-05-14T03:56:52.843Z,11.36
2023-05-14T03:59:19.178Z,11.36
2023-05-14T04:01:45.548Z,11.37
2023-05-14T04:04:12.036Z,11.36
2023-05-14T04:06:39.522Z,11.37
2023-05-14T04:09:05.866Z,11.36
2023-05-14T04:11:32.205Z,11.34
2023-05-14T04:13:58.736Z,11.35
2023-05-14T04:16:25.074Z,11.38
2023-05-14T04:18:51.509Z,11.40
2023-05-14T04:21:17.898Z,11.43
2023-05-14T04:23:44.466Z,11.44
2023-05-14T04:26:11.183Z,11.44
2023-05-14T04:28:37.551Z,11.45
2023-05-14T04:31:04.299Z,11.47
2023-05-14T04:33:30.976Z,11.46
2023-05-14T04:35:57.457Z,11.46
2023-05-14T04:38:23.774Z,11.45
2023-05-14T04:40:50.178Z,11.48
2023-05-14T04:43:17.450Z,11.50
2023-05-14T04:45:43.791Z,11.54
2023-05-14T04:48:10.400Z,11.56
2023-05-14T04:50:36.864Z,11.63
2023-05-14T04:53:03.176Z,11.70
2023-05-14T04:55:29.616Z,11.76
2023-05-14T04:57:56.022Z,11.80
2023-05-14T05:00:23.015Z,11.82
2023-05-14T05:02:49.619Z,11.83
2023-05-14T05:05:16.027Z,11.87
2023-05-14T05:07:42.429Z,11.94
2023-05-14T05:10:09.205Z,12.02
2023-05-14T05:12:35.783Z,12.05
2023-05-14T05:15:02.331Z,12.10
2023-05-14T05:17:29.227Z,12.14
2023-05-14T05:19:55.648Z,12.17
2023-05-14T05:22:22.103Z,12.22
2023-05-14T05:24:49.959Z,12.26
2023-05-14T05:27:16.591Z,12.32
2023-05-14T05:29:44.141Z,12.31
2023-05-14T05:32:10.616Z,12.38
2023-05-14T05:34:37.096Z,12.44
2023-05-14T05:37:03.702Z,12.51
2023-05-14T05:39:34.571Z,12.56
2023-05-14T05:42:02.335Z,12.62
2023-05-14T05:44:28.713Z,12.61
2023-05-14T05:46:57.079Z,12.60
2023-05-14T05:49:23.871Z,12.66
2023-05-14T05:51:50.314Z,12.68
2023-05-14T05:54:16.644Z,12.65
2023-05-14T05:56:43.206Z,12.63
2023-05-14T05:59:09.926Z,12.66
2023-05-14T06:01:36.667Z,12.71
2023-05-14T06:04:04.393Z,12.76
2023-05-14T06:06:32.576Z,12.76
2023-05-14T06:08:59.120Z,12.77
2023-05-14T06:11:25.531Z,12.86
2023-05-14T06:13:51.837Z,12.91
2023-05-14T06:16:18.388Z,12.92
2023-05-14T06:18:44.821Z,12.97
2023-05-14T06:21:11.159Z,12.98
2023-05-14T06:23:37.491Z,13.01
2023-05-14T06:26:04.122Z,13.08
2023-05-14T06:28:30.430Z,13.18
2023-05-14T06:30:56.740Z,13.34
2023-05-14T06:33:29.679Z,13.34
2023-05-14T06:36:04.442Z,13.49
2023-05-14T06:38:30.799Z,13.61
2023-05-14T06:40:57.145Z,13.86
2023-05-14T06:43:23.574Z,14.12
2023-05-14T06:45:50.887Z,14.32
2023-05-14T06:48:21.011Z,16.77
2023-05-14T06:50:48.876Z,18.18
2023-05-14T06:53:15.497Z,18.01
2023-05-14T06:55:41.898Z,16.90
2023-05-14T06:58:08.338Z,16.23
2023-05-14T07:00:35.013Z,16.75
2023-05-14T07:03:01.407Z,16.45
2023-05-14T07:05:27.957Z,16.00
2023-05-14T07:07:54.328Z,16.40
2023-05-14T07:10:20.786Z,17.32
2023-05-14T07:12:47.735Z,18.26
2023-05-14T07:15:14.078Z,18.45
2023-05-14T07:17:40.791Z,18.10
2023-05-14T07:20:07.844Z,19.63
2023-05-14T07:22:34.180Z,19.77
2023-05-14T07:25:00.604Z,19.79
2023-05-14T07:27:27.012Z,19.92
2023-05-14T07:29:53.569Z,20.19
2023-05-14T07:32:19.874Z,20.06
2023-05-14T07:34:46.295Z,19.49
2023-05-14T07:37:12.713Z,19.22
2023-05-14T07:39:39.098Z,19.15
2023-05-14T07:42:05.653Z,18.90
2023-05-14T07:44:32.039Z,18.98
2023-05-14T07:46:58.426Z,18.95
2023-05-14T07:49:25.047Z,18.75
2023-05-14T07:51:51.389Z,18.95
2023-05-14T07:54:17.732Z,19.14
2023-05-14T07:56:44.434Z,19.22
2023-05-14T07:59:10.804Z,19.07
2023-05-14T08:01:39.154Z,19.08
2023-05-14T08:04:06.078Z,19.10
2023-05-14T08:06:32.513Z,19.11
2023-05-14T08:08:58.855Z,18.89
2023-05-14T08:11:26.013Z,18.81
2023-05-14T08:13:52.384Z,18.48
2023-05-14T08:16:18.760Z,18.36
2023-05-14T08:18:45.291Z,18.35
2023-05-14T08:21:11.660Z,18.30
2023-05-14T08:23:38.135Z,18.44
2023-05-14T08:26:04.592Z,18.60
2023-05-14T08:28:30.988Z,18.57
2023-05-14T08:30:57.310Z,18.40
2023-05-14T08:33:23.651Z,18.28
2023-05-14T08:35:52.832Z,18.23
2023-05-14T08:38:19.157Z,18.24
2023-05-14T08:40:55.697Z,18.28
2023-05-14T08:43:26.406Z,18.26
2023-05-14T08:45:58.228Z,18.30
2023-05-14T08:48:28.147Z,18.32
2023-05-14T08:50:54.996Z,18.26
2023-05-14T08:53:21.348Z,18.30
2023-05-14T08:55:50.614Z,18.45
2023-05-14T08:58:17.131Z,18.58
2023-05-14T09:00:43.466Z,18.64
2023-05-14T09:03:10.162Z,18.49
2023-05-14T09:05:37.211Z,18.41
2023-05-14T09:08:03.606Z,18.41
2023-05-14T09:10:29.928Z,18.42
2023-05-14T09:12:56.266Z,18.27
2023-05-14T09:15:27.544Z,18.29
2023-05-14T09:17:53.991Z,18.34
2023-05-14T09:20:20.922Z,18.43
2023-05-14T09:22:47.373Z,18.44
2023-05-14T09:25:13.744Z,18.54
2023-05-14T09:27:40.212Z,18.56
2023-05-14T09:30:11.795Z,18.65
2023-05-14T09:32:46.084Z,18.63
2023-05-14T09:35:20.736Z,18.62
2023-05-14T09:37:52.606Z,18.61
2023-05-14T09:40:20.606Z,18.68
2023-05-14T09:42:48.971Z,18.75
2023-05-14T09:45:15.938Z,18.79
2023-05-14T09:47:42.825Z,18.88
2023-05-14T09:50:09.589Z,18.88
2023-05-14T09:52:37.160Z,18.88
2023-05-14T09:55:04.059Z,18.98
2023-05-14T09:57:30.849Z,19.10
2023-05-14T09:59:57.180Z,19.11
2023-05-14T10:02:26.422Z,19.15
2023-05-14T10:04:54.556Z,19.21
2023-05-14T10:07:29.177Z,19.34
2023-05-14T10:10:01.588Z,19.49
2023-05-14T10:12:33.603Z,19.53
2023-05-14T10:15:03.555Z,19.42
2023-05-14T10:17:34.303Z,19.49
2023-05-14T10:20:02.603Z,19.41
2023-05-14T10:22:33.583Z,19.32
2023-05-14T10:25:00.620Z,19.42
2023-05-14T10:27:27.440Z,19.37
2023-05-14T10:29:55.548Z,19.39
2023-05-14T10:32:25.060Z,19.52
2023-05-14T10:34:52.641Z,19.68
2023-05-14T10:37:21.634Z,19.81
2023-05-14T10:39:58.184Z,19.91
2023-05-14T10:42:27.714Z,20.07
2023-05-14T10:44:58.245Z,20.04
2023-05-14T10:47:26.604Z,19.99
2023-05-14T10:49:55.851Z,19.96
2023-05-14T10:52:22.980Z,20.06
2023-05-14T10:54:56.888Z,20.16
2023-05-14T10:57:27.146Z,20.16
2023-05-14T10:59:56.140Z,20.20
2023-05-14T11:02:25.534Z,20.17
2023-05-14T11:05:03.931Z,20.25
2023-05-14T11:07:36.622Z,20.45
2023-05-14T11:10:07.883Z,20.53
2023-05-14T11:12:36.221Z,20.62
2023-05-14T11:15:04.894Z,20.69
2023-05-14T11:17:31.996Z,20.82
2023-05-14T11:19:59.214Z,20.91
2023-05-14T11:22:25.775Z,21.06
2023-05-14T11:24:52.635Z,21.13
2023-05-14T11:27:19.405Z,21.30
2023-05-14T11:29:46.917Z,21.24
2023-05-14T11:32:14.493Z,21.33
2023-05-14T11:34:44.731Z,21.54
2023-05-14T11:37:12.896Z,21.71
2023-05-14T11:39:40.131Z,21.92
2023-05-14T11:42:16.693Z,22.05
2023-05-14T11:44:44.496Z,22.05
2023-05-14T11:47:11.720Z,21.73
2023-05-14T11:49:38.580Z,21.59
2023-05-14T11:52:06.641Z,21.56
2023-05-14T11:54:34.233Z,21.40
2023-05-14T11:57:02.561Z,21.29
2023-05-14T11:59:31.713Z,21.29
2023-05-14T12:02:02.375Z,21.27
2023-05-14T12:04:29.393Z,21.39
2023-05-14T12:06:58.580Z,21.65
2023-05-14T12:09:25.235Z,21.82
2023-05-14T12:11:52.492Z,21.91
2023-05-14T12:14:23.373Z,22.07
2023-05-14T12:16:51.340Z,22.11
2023-05-14T12:19:19.363Z,22.21
2023-05-14T12:21:47.987Z,22.26
2023-05-14T12:24:17.012Z,22.32
2023-05-14T12:26:50.761Z,22.33
2023-05-14T12:29:17.418Z,22.46
2023-05-14T12:31:48.305Z,22.53
2023-05-14T12:34:15.432Z,22.74
2023-05-14T12:36:42.217Z,22.86
2023-05-14T12:39:09.716Z,22.88
2023-05-14T12:41:36.885Z,22.80
2023-05-14T12:44:04.474Z,22.77
2023-05-14T12:46:30.951Z,22.67
2023-05-14T12:48:57.427Z,22.69
2023-05-14T12:51:23.957Z,22.60
2023-05-14T12:53:51.561Z,22.66
2023-05-14T12:56:17.967Z,22.78
2023-05-14T12:58:46.506Z,22.81
2023-05-14T13:01:12.897Z,22.87
2023-05-14T13:03:39.864Z,22.81
2023-05-14T13:06:06.449Z,22.64
2023-05-14T13:08:32.782Z,22.73
2023-05-14T13:10:59.121Z,22.66
2023-05-14T13:13:25.719Z,22.76
2023-05-14T13:15:53.361Z,22.83
2023-05-14T13:18:19.776Z,22.64
2023-05-14T13:20:47.429Z,22.75
2023-05-14T13:23:14.560Z,23.01
2023-05-14T13:25:41.018Z,23.10
2023-05-14T13:28:08.423Z,23.21
2023-05-14T13:30:34.744Z,23.07
2023-05-14T13:33:01.190Z,22.93
2023-05-14T13:35:27.789Z,22.86
2023-05-14T13:37:54.116Z,22.91
2023-05-14T13:40:20.913Z,22.90
2023-05-14T13:42:47.222Z,22.93
2023-05-14T13:45:13.625Z,23.01
2023-05-14T13:47:40.339Z,23.09
2023-05-14T13:50:07.307Z,23.09
2023-05-14T13:52:33.637Z,22.99
2023-05-14T13:55:00.018Z,22.78
2023-05-14T13:57:26.350Z,22.66
2023-05-14T13:59:52.699Z,22.54
2023-05-14T14:02:19.061Z,22.63
2023-05-14T14:04:45.449Z,22.65
2023-05-14T14:07:11.795Z,22.75
2023-05-14T14:09:38.145Z,22.85
2023-05-14T14:12:05.008Z,22.66
2023-05-14T14:14:31.514Z,22.39
2023-05-14T14:16:57.933Z,22.18
2023-05-14T14:19:24.419Z,22.13
2023-05-14T14:24:22.095Z,22.04
2023-05-14T14:26:48.602Z,22.10
2023-05-14T14:29:14.925Z,22.06
2023-05-14T14:31:41.389Z,22.05
2023-05-14T14:34:07.790Z,22.07
2023-05-14T14:36:34.173Z,22.10
2023-05-14T14:39:00.514Z,22.10
2023-05-14T14:41:27.302Z,22.06
2023-05-14T14:43:53.793Z,22.06
2023-05-14T14:46:20.266Z,22.06
2023-05-14T14:48:46.677Z,21.91
2023-05-14T14:51:13.067Z,22.00
2023-05-14T14:53:40.487Z,21.92
2023-05-14T14:56:07.070Z,21.96
2023-05-14T14:58:33.583Z,22.14
2023-05-14T15:01:01.122Z,21.96
2023-05-14T15:03:27.905Z,21.86
2023-05-14T15:05:54.374Z,21.90
2023-05-14T15:08:26.711Z,21.89
2023-05-14T15:10:53.809Z,21.81
2023-05-14T15:13:20.566Z,21.83
2023-05-14T15:15:47.334Z,21.72
2023-05-14T15:18:13.726Z,21.72
2023-05-14T15:20:40.215Z,21.76
2023-05-14T15:23:06.670Z,21.70
2023-05-14T15:25:32.999Z,21.70
2023-05-14T15:27:59.348Z,21.71
2023-05-14T15:30:25.718Z,21.78
2023-05-14T15:32:52.237Z,21.80
2023-05-14T15:35:18.595Z,21.55
2023-05-14T15:37:45.016Z,21.32
2023-05-14T15:40:12.144Z,21.25
2023-05-14T15:42:41.904Z,21.17
2023-05-14T15:45:10.260Z,21.14
2023-05-14T15:47:36.607Z,21.08
2023-05-14T15:50:03.976Z,21.02
2023-05-14T15:52:30.369Z,20.94
2023-05-14T15:54:57.396Z,21.04
2023-05-14T15:57:24.045Z,20.85
2023-05-14T15:59:51.338Z,20.76
2023-05-14T16:02:18.782Z,20.78
2023-05-14T16:04:45.243Z,20.73
2023-05-14T16:07:14.739Z,20.73
2023-05-14T16:09:41.356Z,20.71
2023-05-14T16:12:08.361Z,20.68
2023-05-14T16:14:35.715Z,20.59
2023-05-14T16:17:02.194Z,20.53
2023-05-14T16:19:28.784Z,20.46
2023-05-14T16:21:55.217Z,20.37
2023-05-14T16:24:21.696Z,20.20
2023-05-14T16:26:48.087Z,20.11
2023-05-14T16:29:14.464Z,20.00
2023-05-14T16:31:40.860Z,19.90
2023-05-14T16:34:07.229Z,19.83
2023-05-14T16:36:33.592Z,19.81
2023-05-14T16:39:07.441Z,19.75
2023-05-14T16:41:35.642Z,19.72
2023-05-14T16:44:02.159Z,19.59
2023-05-14T16:46:29.272Z,19.55
2023-05-14T16:48:56.149Z,19.51
2023-05-14T16:51:22.740Z,19.38
2023-05-14T16:53:49.231Z,19.32
2023-05-14T16:56:15.824Z,19.25
2023-05-14T16:58:42.233Z,19.19
2023-05-14T17:01:09.808Z,19.11
2023-05-14T17:03:36.824Z,19.09
2023-05-14T17:06:04.496Z,19.05
2023-05-14T17:08:33.410Z,19.01
2023-05-14T17:10:59.862Z,18.93
2023-05-14T17:13:26.254Z,18.79
2023-05-14T17:15:52.719Z,18.67
2023-05-14T17:18:19.375Z,18.64
2023-05-14T17:20:45.992Z,18.59
2023-05-14T17:23:12.438Z,18.60
2023-05-14T17:25:38.870Z,18.51
2023-05-14T17:28:05.473Z,18.48
2023-05-14T17:30:32.008Z,18.29
2023-05-14T17:32:58.478Z,18.16
2023-05-14T17:35:25.704Z,18.11
2023-05-14T17:37:52.229Z,18.09
2023-05-14T17:40:18.620Z,17.98
2023-05-14T17:42:45.372Z,17.88
2023-05-14T17:45:13.048Z,17.77
2023-05-14T17:47:39.487Z,17.63
2023-05-14T17:50:06.602Z,17.56
2023-05-14T17:52:32.962Z,17.51
2023-05-14T17:54:59.339Z,17.41
2023-05-14T17:57:26.444Z,17.35
2023-05-14T17:59:52.763Z,17.27
2023-05-14T18:02:19.101Z,17.18
2023-05-14T18:04:46.544Z,17.07
2023-05-14T18:07:12.979Z,17.04
2023-05-14T18:09:39.317Z,17.03
2023-05-14T18:12:06.047Z,16.91
2023-05-14T18:14:32.358Z,16.79
2023-05-14T18:16:58.952Z,16.72
2023-05-14T18:19:25.508Z,16.66
2023-05-14T18:21:51.931Z,16.56
2023-05-14T18:24:18.279Z,16.51
2023-05-14T18:26:44.664Z,16.39
2023-05-14T18:29:11.016Z,16.27
2023-05-14T18:31:37.411Z,16.17
2023-05-14T18:34:03.744Z,16.08
2023-05-14T18:36:30.080Z,16.00
2023-05-14T18:38:56.438Z,15.91
2023-05-14T18:41:23.433Z,15.86
2023-05-14T18:43:49.914Z,15.86
2023-05-14T18:46:16.311Z,15.82
2023-05-14T18:48:42.738Z,15.74
2023-05-14T18:51:11.090Z,15.65
2023-05-14T18:53:37.471Z,15.59
2023-05-14T18:56:04.177Z,15.54
2023-05-14T18:58:30.506Z,15.46
2023-05-14T19:00:58.894Z,15.41
2023-05-14T19:03:25.934Z,15.35
2023-05-14T19:05:53.064Z,15.28
2023-05-14T19:08:19.465Z,15.21
2023-05-14T19:10:45.827Z,15.16
2023-05-14T19:13:12.159Z,15.11
2023-05-14T19:15:38.782Z,15.03
2023-05-14T19:18:05.349Z,15.01
2023-05-14T19:20:31.792Z,14.98
2023-05-14T19:22:58.133Z,14.96
2023-05-14T19:25:24.944Z,14.94
2023-05-14T19:27:53.458Z,14.91
2023-05-14T19:30:20.417Z,14.88
2023-05-14T19:32:46.851Z,14.83
2023-05-14T19:35:13.624Z,14.79
2023-05-14T19:37:40.247Z,14.72
2023-05-14T19:40:07.233Z,14.66
2023-05-14T19:42:33.568Z,14.63
2023-05-14T19:44:59.916Z,14.57
2023-05-14T19:47:27.433Z,14.49
2023-05-14T19:49:53.821Z,14.38
2023-05-14T19:52:20.212Z,14.35
2023-05-14T19:54:47.107Z,14.30
2023-05-14T19:57:13.446Z,14.21
2023-05-14T19:59:40.307Z,14.15
2023-05-14T20:02:07.636Z,14.12
2023-05-14T20:04:34.762Z,14.11
2023-05-14T20:07:01.482Z,14.06
2023-05-14T20:09:27.798Z,14.01
2023-05-14T20:11:54.117Z,13.96
2023-05-14T20:14:20.553Z,13.90
2023-05-14T20:16:47.248Z,13.88
2023-05-14T20:19:14.137Z,13.82
2023-05-14T20:21:40.578Z,13.82
2023-05-14T20:24:06.954Z,13.81
2023-05-14T20:26:33.268Z,13.80
2023-05-14T20:28:59.611Z,13.75
2023-05-14T20:31:25.987Z,13.75
2023-05-14T20:33:52.322Z,13.75
2023-05-14T20:36:19.088Z,13.71
2023-05-14T20:38:45.611Z,13.68
2023-05-14T20:41:12.036Z,13.66
2023-05-14T20:43:38.438Z,13.64
2023-05-14T20:46:07.083Z,13.61
2023-05-14T20:48:33.436Z,13.56
2023-05-14T20:50:59.992Z,13.52
2023-05-14T20:53:28.168Z,13.50
2023-05-14T20:55:54.493Z,13.50
2023-05-14T20:58:20.908Z,13.49
2023-05-14T21:00:47.376Z,13.47
2023-05-14T21:03:13.812Z,13.44
2023-05-14T21:05:41.446Z,13.42
2023-05-14T21:08:07.865Z,13.38
2023-05-14T21:10:34.256Z,13.37
2023-05-14T21:13:00.877Z,13.36
2023-05-14T21:15:27.536Z,13.28
2023-05-14T21:17:54.203Z,13.26
2023-05-14T21:20:20.763Z,13.25
2023-05-14T21:22:47.082Z,13.27
2023-05-14T21:25:13.423Z,13.26
2023-05-14T21:27:40.006Z,13.25
2023-05-14T21:30:06.992Z,13.22
2023-05-14T21:32:33.402Z,13.21
2023-05-14T21:34:59.756Z,13.13
2023-05-14T21:37:26.156Z,13.10
2023-05-14T21:39:52.651Z,13.07
2023-05-14T21:42:20.898Z,13.07
2023-05-14T21:44:47.409Z,13.01
2023-05-14T21:47:14.156Z,12.98
2023-05-14T21:49:41.559Z,12.96
2023-05-14T21:52:07.940Z,12.94
2023-05-14T21:54:34.306Z,12.96
2023-05-14T21:57:01.525Z,12.93
2023-05-14T21:59:27.855Z,12.90
2023-05-14T22:04:23.430Z,12.80
2023-05-14T22:06:49.908Z,12.77
2023-05-14T22:09:16.224Z,12.74
2023-05-14T22:11:42.632Z,12.71
2023-05-14T22:14:08.956Z,12.68
2023-05-14T22:16:35.389Z,12.59
2023-05-14T22:19:02.192Z,12.56
2023-05-14T22:21:28.772Z,12.55
2023-05-14T22:23:55.082Z,12.56
2023-05-14T22:26:21.659Z,12.58
2023-05-14T22:28:49.482Z,12.55
2023-05-14T22:31:15.954Z,12.50
2023-05-14T22:33:42.329Z,12.48
2023-05-14T22:36:09.258Z,12.43
2023-05-14T22:38:35.909Z,12.38
2023-05-14T22:41:02.299Z,12.31
2023-05-14T22:43:28.640Z,12.26
2023-05-14T22:45:55.532Z,12.25
2023-05-14T22:48:21.891Z,12.22
2023-05-14T22:50:48.207Z,12.17
2023-05-14T22:53:14.653Z,12.12
2023-05-14T22:55:40.982Z,12.10
2023-05-14T22:58:07.298Z,12.10
2023-05-14T23:00:33.708Z,12.08
2023-05-14T23:03:00.175Z,12.09
2023-05-14T23:05:26.902Z,12.11
2023-05-14T23:07:53.499Z,12.15
2023-05-14T23:10:19.905Z,12.16
2023-05-14T23:12:46.225Z,12.14
2023-05-14T23:15:12.581Z,12.11
2023-05-14T23:17:40.753Z,12.07
2023-05-14T23:20:10.406Z,12.05
2023-05-14T23:22:36.734Z,12.07
2023-05-14T23:25:03.622Z,12.07
2023-05-14T23:27:29.957Z,12.08
2023-05-14T23:29:56.338Z,12.06
2023-05-14T23:32:22.881Z,12.04
2023-05-14T23:34:49.234Z,12.00
2023-05-14T23:37:15.652Z,11.96
2023-05-14T23:39:42.675Z,11.91
2023-05-14T23:42:09.019Z,11.88
2023-05-14T23:44:35.344Z,11.85
2023-05-14T23:47:01.880Z,11.83
2023-05-14T23:49:28.284Z,11.78
2023-05-14T23:51:54.596Z,11.75
2023-05-14T23:54:21.386Z,11.73
2023-05-14T23:56:47.891Z,11.69
2023-05-14T23:59:14.337Z,11.65
